Time;durP1;ratioP1;P1;durP2;ratioP2;P2;SDS_P1;SDS_P2;PMS_P1;PMS_P2;Temp;Humidity;BMP_temperature;BMP_pressure;BME280_temperature;BME280_humidity;BME280_pressure;Samples;Min_cycle;Max_cycle;Signal;HPM_P1;HPM_P2
2021/09/03 00:00:33;;;;;;;9.20;4.10;;;;;;;12.15;86.25;99403.90;235026;1205;22522;-82
2021/09/03 00:05:36;;;;;;;9.40;4.60;;;;;;;12.02;85.87;99401.65;235260;1205;22545;-82
2021/09/03 00:10:40;;;;;;;7.30;4.20;;;;;;;11.93;85.82;99402.74;235295;1209;22948;-83
2021/09/03 00:16:04;;;;;;;10.90;5.50;;;;;;;11.82;86.00;99401.09;235251;1205;22512;-82
2021/09/03 00:21:08;;;;;;;9.80;5.70;;;;;;;11.74;85.85;99400.52;235063;1205;24744;-83
2021/09/03 00:26:15;;;;;;;10.20;5.20;;;;;;;11.70;86.40;99398.52;235140;1205;22466;-82
2021/09/03 00:31:20;;;;;;;7.30;4.30;;;;;;;11.71;86.57;99401.61;235275;1206;22571;-81
2021/09/03 00:36:23;;;;;;;12.20;5.80;;;;;;;11.66;86.62;99400.85;235038;1205;22575;-83
2021/09/03 00:41:25;;;;;;;11.00;5.40;;;;;;;11.61;86.48;99400.61;235397;1205;22489;-81
2021/09/03 00:46:32;;;;;;;11.40;6.10;;;;;;;11.51;86.54;99398.96;234792;1209;22498;-81
2021/09/03 00:51:42;;;;;;;11.90;6.90;;;;;;;11.40;86.59;99394.84;235286;1210;24073;-82
2021/09/03 00:56:45;;;;;;;10.40;5.50;;;;;;;11.35;86.83;99390.70;234958;1209;24202;-81
2021/09/03 01:01:49;;;;;;;13.20;6.50;;;;;;;11.32;86.87;99388.80;235092;1206;22472;-81
2021/09/03 01:06:52;;;;;;;12.70;6.50;;;;;;;11.28;87.10;99382.65;235272;1205;22459;-82
2021/09/03 01:11:55;;;;;;;13.10;6.30;;;;;;;11.26;87.21;99376.48;235262;1204;25225;-82
2021/09/03 01:16:59;;;;;;;13.30;6.40;;;;;;;11.24;87.41;99375.16;235261;1204;22506;-81
2021/09/03 01:22:02;;;;;;;11.00;6.80;;;;;;;11.20;87.34;99367.89;235440;1204;22466;-80
2021/09/03 01:27:05;;;;;;;13.50;6.90;;;;;;;11.15;87.27;99363.46;235245;1209;22517;-82
2021/09/03 01:32:08;;;;;;;11.10;5.90;;;;;;;11.10;87.42;99354.77;235234;1204;22568;-82
2021/09/03 01:37:11;;;;;;;10.30;5.20;;;;;;;11.07;87.53;99349.47;235418;1205;22446;-81
2021/09/03 01:42:14;;;;;;;11.70;6.40;;;;;;;11.03;87.60;99352.59;234883;1209;24223;-81
2021/09/03 01:47:20;;;;;;;13.10;6.80;;;;;;;10.98;87.86;99342.28;234890;1205;25274;-82
2021/09/03 01:52:23;;;;;;;8.40;5.10;;;;;;;10.95;87.94;99341.49;234788;1206;24344;-81
2021/09/03 01:57:26;;;;;;;13.40;5.90;;;;;;;10.94;87.87;99338.59;235063;1209;25176;-82
2021/09/03 02:02:36;;;;;;;;;;;;;;;10.89;88.07;99336.70;235122;1205;25198;-82
2021/09/03 02:07:40;;;;;;;14.20;5.50;;;;;;;10.84;88.02;99334.96;235246;1205;24057;-83
2021/09/03 02:12:43;;;;;;;9.10;5.50;;;;;;;10.80;88.15;99333.86;235313;1205;24105;-82
2021/09/03 02:17:48;;;;;;;9.30;5.10;;;;;;;10.75;88.22;99331.36;234952;1205;26568;-81
2021/09/03 02:22:58;;;;;;;10.30;5.50;;;;;;;10.72;88.29;99323.08;235426;1205;22930;-81
2021/09/03 02:28:18;;;;;;;11.20;5.70;;;;;;;10.68;88.53;99326.52;234982;1206;25221;-80
2021/09/03 02:33:21;;;;;;;11.20;5.50;;;;;;;10.65;88.62;99324.02;235134;1200;22472;-82
2021/09/03 02:38:25;;;;;;;12.00;6.50;;;;;;;10.63;88.55;99316.94;234818;1208;22481;-81
2021/09/03 02:43:28;;;;;;;11.70;5.90;;;;;;;10.61;88.81;99314.38;234864;1206;23300;-81
2021/09/03 02:48:31;;;;;;;8.20;5.60;;;;;;;10.59;88.76;99315.67;234927;1205;22481;-81
2021/09/03 02:53:34;;;;;;;8.70;5.40;;;;;;;10.52;88.85;99314.58;235194;1209;22525;-80
2021/09/03 02:58:42;;;;;;;9.10;5.40;;;;;;;10.46;88.81;99311.17;234804;1209;22462;-80
2021/09/03 03:03:45;;;;;;;15.90;6.30;;;;;;;10.43;88.92;99311.19;235361;1208;24501;-81
2021/09/03 03:08:48;;;;;;;12.10;5.80;;;;;;;10.41;89.23;99306.96;234996;1210;22448;-82
2021/09/03 03:13:59;;;;;;;13.00;6.10;;;;;;;10.41;89.21;99305.84;234860;1202;24145;-80
2021/09/03 03:19:10;;;;;;;10.10;6.00;;;;;;;10.38;89.23;99300.59;235127;1204;22473;-81
2021/09/03 03:24:27;;;;;;;10.20;6.00;;;;;;;10.38;89.40;99294.27;234778;1205;22463;-81
2021/09/03 03:29:30;;;;;;;15.20;7.70;;;;;;;10.39;89.45;99296.52;234897;1209;24529;-82
2021/09/03 03:34:33;;;;;;;25.40;14.50;;;;;;;10.36;89.42;99292.04;234916;1206;22608;-81
2021/09/03 03:39:53;;;;;;;;;;;;;;;10.33;89.36;99290.26;234722;1203;25238;-82
2021/09/03 03:44:57;;;;;;;48.80;28.00;;;;;;;10.26;89.18;99294.98;235127;1209;22462;-81
2021/09/03 03:50:00;;;;;;;50.40;25.70;;;;;;;10.23;89.36;99287.13;235430;1210;22605;-81
2021/09/03 03:55:04;;;;;;;21.10;12.40;;;;;;;10.22;89.28;99282.31;235205;1198;22485;-81
2021/09/03 04:00:08;;;;;;;19.30;9.50;;;;;;;10.19;89.33;99278.10;235408;1205;24167;-80
2021/09/03 04:05:11;;;;;;;17.70;7.70;;;;;;;10.16;89.61;99274.03;235164;1206;22770;-82
2021/09/03 04:10:15;;;;;;;11.80;6.30;;;;;;;10.12;89.56;99277.21;235154;1206;22454;-82
2021/09/03 04:15:19;;;;;;;12.90;6.50;;;;;;;10.10;89.61;99272.55;234942;1207;26393;-82
2021/09/03 04:20:22;;;;;;;11.50;6.70;;;;;;;10.10;89.89;99272.50;235185;1209;24062;-81
2021/09/03 04:25:25;;;;;;;13.30;6.50;;;;;;;10.13;89.86;99274.85;234604;1208;25244;-81
2021/09/03 04:30:27;;;;;;;14.30;6.40;;;;;;;10.18;90.07;99267.33;235038;1203;24750;-82
2021/09/03 04:35:30;;;;;;;13.80;6.10;;;;;;;10.23;90.01;99263.19;235457;1209;24323;-82
2021/09/03 04:40:35;;;;;;;9.90;5.80;;;;;;;10.28;90.15;99258.13;235150;1200;24046;-82
2021/09/03 04:45:37;;;;;;;14.50;7.30;;;;;;;10.32;90.01;99263.86;235093;1202;22460;-80
2021/09/03 04:50:41;;;;;;;11.70;6.90;;;;;;;10.37;90.16;99266.55;235225;1202;24304;-83
2021/09/03 04:55:44;;;;;;;14.50;7.30;;;;;;;10.48;90.44;99271.96;235300;1209;22578;-82
2021/09/03 05:00:47;;;;;;;10.00;5.00;;;;;;;10.68;91.06;99275.92;235300;1205;24038;-81
2021/09/03 05:05:49;;;;;;;11.30;5.30;;;;;;;10.78;90.31;99270.71;235044;1198;22487;-82
2021/09/03 05:11:10;;;;;;;14.10;6.10;;;;;;;10.84;90.15;99269.89;235241;1204;24242;-80
2021/09/03 05:16:18;;;;;;;10.00;6.10;;;;;;;10.90;89.90;99266.48;235033;1212;22158;-80
2021/09/03 05:21:21;;;;;;;11.30;5.80;;;;;;;10.99;90.18;99265.01;235242;1204;22649;-83
2021/09/03 05:26:32;;;;;;;11.80;5.20;;;;;;;11.12;90.20;99264.39;234847;1206;22450;-83
2021/09/03 05:31:35;;;;;;;10.50;5.60;;;;;;;11.28;90.55;99273.55;234937;1206;22515;-82
2021/09/03 05:36:39;;;;;;;10.60;5.70;;;;;;;11.45;90.38;99269.60;235572;1205;22609;-83
2021/09/03 05:41:41;;;;;;;9.10;5.20;;;;;;;11.64;90.42;99269.68;235359;1204;23262;-81
2021/09/03 05:46:44;;;;;;;10.60;5.80;;;;;;;11.82;90.31;99271.45;234962;1207;24208;-81
2021/09/03 05:51:48;;;;;;;7.50;4.50;;;;;;;11.96;90.08;99268.80;235440;1205;24061;-81
2021/09/03 05:56:52;;;;;;;17.60;5.50;;;;;;;12.06;89.97;99265.80;235300;1207;24056;-82
2021/09/03 06:02:08;;;;;;;8.00;4.80;;;;;;;12.20;90.09;99264.73;235396;1205;24057;-83
2021/09/03 06:07:13;;;;;;;8.90;5.00;;;;;;;12.40;90.19;99259.06;236061;1205;23009;-83
2021/09/03 06:12:18;;;;;;;9.20;4.40;;;;;;;12.65;90.46;99262.04;235746;1205;22460;-81
2021/09/03 06:17:21;;;;;;;7.80;4.50;;;;;;;12.92;90.25;99255.28;235285;1212;22480;-81
2021/09/03 06:22:24;;;;;;;6.80;3.80;;;;;;;13.13;90.18;99249.10;236123;1205;24028;-81
2021/09/03 06:27:27;;;;;;;5.00;2.70;;;;;;;13.40;90.40;99251.14;235473;1205;25188;-81
2021/09/03 06:32:30;;;;;;;6.30;3.60;;;;;;;13.66;89.93;99252.49;235323;1205;22456;-82
2021/09/03 06:37:34;;;;;;;7.60;3.30;;;;;;;13.90;89.76;99252.00;235371;1206;24081;-80
2021/09/03 06:42:37;;;;;;;6.20;3.10;;;;;;;14.15;89.49;99249.14;235836;1204;24079;-82
2021/09/03 06:47:43;;;;;;;5.00;3.10;;;;;;;14.41;89.23;99247.97;235518;1204;22575;-80
2021/09/03 06:52:46;;;;;;;4.50;2.60;;;;;;;14.67;88.79;99248.11;235826;1204;25287;-80
2021/09/03 06:57:57;;;;;;;5.60;2.30;;;;;;;14.92;88.37;99245.84;235582;1205;22542;-80
2021/09/03 07:03:00;;;;;;;5.60;2.70;;;;;;;15.17;88.04;99244.52;235551;1205;22984;-81
2021/09/03 07:08:06;;;;;;;7.00;2.60;;;;;;;15.42;87.68;99244.95;235708;1197;25081;-83
2021/09/03 07:13:11;;;;;;;4.50;2.50;;;;;;;15.64;87.00;99246.14;235866;1204;22395;-81
2021/09/03 07:18:15;;;;;;;3.60;2.50;;;;;;;15.86;86.59;99246.23;235539;1205;23146;-82
2021/09/03 07:23:18;;;;;;;3.50;2.20;;;;;;;16.10;86.24;99248.72;235200;1204;22498;-80
2021/09/03 07:28:21;;;;;;;3.60;2.20;;;;;;;16.34;85.50;99252.52;234940;1204;22456;-80
2021/09/03 07:33:24;;;;;;;3.10;2.30;;;;;;;16.51;84.93;99249.36;234237;1204;23086;-82
2021/09/03 07:38:29;;;;;;;3.30;2.20;;;;;;;16.71;84.44;99247.98;235318;1204;22484;-78
2021/09/03 07:43:32;;;;;;;2.60;1.70;;;;;;;16.85;83.80;99246.14;235794;1198;22470;-81
2021/09/03 07:48:35;;;;;;;3.00;2.00;;;;;;;16.99;83.30;99240.29;235019;1205;24071;-80
2021/09/03 07:53:38;;;;;;;5.50;2.70;;;;;;;17.13;82.77;99233.48;235023;1205;22549;-80
2021/09/03 07:58:41;;;;;;;5.00;3.40;;;;;;;17.23;81.97;99233.71;235245;1197;24055;-81
2021/09/03 08:03:44;;;;;;;7.50;4.30;;;;;;;17.35;80.96;99232.83;235425;1204;22543;-78
2021/09/03 08:08:48;;;;;;;5.70;4.50;;;;;;;17.51;81.33;99229.20;235683;1204;22464;-80
2021/09/03 08:13:56;;;;;;;7.20;4.30;;;;;;;17.75;80.88;99220.84;235299;1204;24118;-80
2021/09/03 08:19:03;;;;;;;7.50;4.40;;;;;;;17.92;80.04;99211.73;235071;1205;24064;-78
2021/09/03 08:24:11;;;;;;;6.20;4.10;;;;;;;18.09;79.31;99212.49;235245;1204;22381;-79
2021/09/03 08:29:27;;;;;;;5.40;3.80;;;;;;;18.27;79.16;99206.66;235235;1204;22595;-80
2021/09/03 08:34:51;;;;;;;5.50;4.10;;;;;;;18.47;78.33;99206.19;235665;1205;22429;-80
2021/09/03 08:39:54;;;;;;;5.10;3.70;;;;;;;18.60;77.26;99198.27;235661;1198;22463;-80
2021/09/03 08:44:59;;;;;;;4.30;3.70;;;;;;;18.72;76.59;99193.77;234774;1205;22468;-80
2021/09/03 08:50:04;;;;;;;4.50;3.70;;;;;;;18.86;76.75;99194.58;234296;1199;22485;-79
2021/09/03 08:55:07;;;;;;;5.80;3.90;;;;;;;19.07;76.98;99194.18;234023;1206;22647;-80
2021/09/03 09:00:25;;;;;;;4.40;3.50;;;;;;;19.24;76.10;99195.66;233922;1209;24067;-79
2021/09/03 09:06:00;;;;;;;4.50;3.60;;;;;;;19.30;75.04;99193.08;234602;1204;22621;-78
2021/09/03 09:11:09;;;;;;;4.40;3.30;;;;;;;19.43;74.63;99189.77;234124;1207;25291;-80
2021/09/03 09:16:23;;;;;;;4.10;3.60;;;;;;;19.56;74.44;99185.02;234869;1206;24032;-81
2021/09/03 09:21:45;;;;;;;5.50;4.20;;;;;;;19.60;73.89;99182.75;234684;1205;22513;-79
2021/09/03 09:26:57;;;;;;;5.50;3.70;;;;;;;19.76;73.61;99177.10;235595;1204;22465;-81
2021/09/03 09:32:06;;;;;;;4.40;4.00;;;;;;;19.91;73.52;99170.52;235530;1204;23689;-81
2021/09/03 09:37:15;;;;;;;5.40;4.00;;;;;;;20.13;72.68;99168.77;234826;1205;24064;-80
2021/09/03 09:42:28;;;;;;;4.40;3.80;;;;;;;20.33;70.73;99167.83;235155;1206;22457;-80
2021/09/03 09:47:30;;;;;;;5.60;4.10;;;;;;;20.55;70.54;99158.73;235130;1206;22481;-80
2021/09/03 09:52:35;;;;;;;4.20;3.40;;;;;;;20.78;68.33;99155.27;235040;1205;22483;-80
2021/09/03 09:57:41;;;;;;;5.00;3.90;;;;;;;20.86;67.91;99149.27;235323;1205;22581;-81
2021/09/03 10:02:57;;;;;;;3.90;3.60;;;;;;;20.88;67.63;99146.36;235336;1204;22554;-80
2021/09/03 10:08:13;;;;;;;4.30;3.90;;;;;;;21.12;66.05;99149.01;235572;1204;22537;-79
2021/09/03 10:13:16;;;;;;;4.40;3.70;;;;;;;21.35;64.73;99144.69;234108;1204;24211;-78
2021/09/03 10:18:21;;;;;;;5.50;4.00;;;;;;;21.53;63.82;99145.59;234236;1204;24073;-84
2021/09/03 10:23:46;;;;;;;4.40;3.40;;;;;;;21.78;64.95;99131.06;235210;1198;22490;-79
2021/09/03 10:29:20;;;;;;;5.10;3.70;;;;;;;21.95;61.86;99128.34;234941;1204;24105;-80
2021/09/03 10:34:39;;;;;;;5.40;3.60;;;;;;;22.12;61.63;99127.62;235176;1206;25242;-81
2021/09/03 10:39:49;;;;;;;5.40;4.90;;;;;;;22.29;60.62;99125.69;235116;1205;22475;-81
2021/09/03 10:45:08;;;;;;;5.60;4.70;;;;;;;22.57;60.82;99122.07;235171;1197;25228;-80
2021/09/03 10:50:24;;;;;;;4.10;3.60;;;;;;;22.79;60.61;99113.36;235085;1204;22472;-78
2021/09/03 10:55:46;;;;;;;5.00;4.50;;;;;;;22.88;60.42;99109.40;234791;1206;22467;-80
2021/09/03 11:01:09;;;;;;;6.40;5.80;;;;;;;22.88;60.03;99104.48;234767;1204;22464;-80
2021/09/03 11:06:14;;;;;;;4.70;4.20;;;;;;;22.78;60.04;99089.84;235194;1204;22573;-81
2021/09/03 11:11:32;;;;;;;5.20;4.70;;;;;;;22.83;59.98;99081.61;235029;1205;22589;-80
2021/09/03 11:16:48;;;;;;;6.00;5.00;;;;;;;22.87;59.68;99080.66;234966;1205;24230;-81
2021/09/03 11:21:56;;;;;;;6.80;4.50;;;;;;;22.58;59.63;99074.98;235249;1204;22441;-80
2021/09/03 11:27:04;;;;;;;7.40;5.30;;;;;;;22.26;60.29;99077.22;235181;1204;23354;-82
2021/09/03 11:32:12;;;;;;;5.90;5.00;;;;;;;22.44;61.58;99074.23;235143;1204;22464;-81
2021/09/03 11:37:31;;;;;;;5.50;5.00;;;;;;;22.82;60.65;99074.77;235509;1204;24051;-80
2021/09/03 11:42:59;;;;;;;6.60;4.30;;;;;;;22.99;59.19;99072.11;235427;1204;22407;-80
2021/09/03 11:48:04;;;;;;;7.50;6.70;;;;;;;22.71;58.24;99066.64;234806;1205;24072;-84
2021/09/03 11:53:29;;;;;;;6.50;5.90;;;;;;;22.44;59.27;99065.67;235458;1201;22442;-81
2021/09/03 11:58:51;;;;;;;5.20;4.30;;;;;;;22.32;59.35;99063.09;235499;1204;22552;-79
2021/09/03 12:03:58;;;;;;;5.50;4.90;;;;;;;22.25;58.49;99058.40;235297;1204;22465;-81
2021/09/03 12:09:01;;;;;;;5.00;4.30;;;;;;;22.17;57.68;99056.70;235143;1204;25085;-81
2021/09/03 12:14:10;;;;;;;5.50;5.00;;;;;;;22.23;57.98;99046.70;235365;1204;24160;-81
2021/09/03 12:19:14;;;;;;;4.40;3.70;;;;;;;22.29;56.58;99045.48;235483;1204;22649;-80
2021/09/03 12:24:16;;;;;;;4.80;4.10;;;;;;;22.34;56.20;99043.81;235155;1198;25608;-80
2021/09/03 12:29:34;;;;;;;4.60;4.10;;;;;;;22.38;55.39;99040.77;235236;1200;22479;-80
2021/09/03 12:34:59;;;;;;;4.20;3.80;;;;;;;22.50;56.02;99034.27;235082;1204;22476;-81
2021/09/03 12:40:07;;;;;;;8.30;6.60;;;;;;;22.65;55.38;99032.67;235437;1205;22576;-80
2021/09/03 12:45:11;;;;;;;4.10;3.30;;;;;;;22.75;54.60;99030.98;235406;1204;22547;-80
2021/09/03 12:50:20;;;;;;;5.80;3.70;;;;;;;22.73;54.35;99026.43;235045;1204;22546;-81
2021/09/03 12:55:23;;;;;;;4.70;4.20;;;;;;;22.65;53.89;99013.80;235182;1205;22581;-80
2021/09/03 13:00:26;;;;;;;3.50;3.20;;;;;;;22.62;54.60;99004.08;234904;1204;22962;-79
2021/09/03 13:05:29;;;;;;;4.20;3.80;;;;;;;22.70;54.71;99001.17;234895;1204;22578;-79
2021/09/03 13:10:32;;;;;;;4.40;3.80;;;;;;;22.88;54.45;98997.80;234103;1204;24276;-79
2021/09/03 13:15:36;;;;;;;4.30;3.40;;;;;;;22.89;53.97;98997.89;234876;1204;22471;-80
2021/09/03 13:20:39;;;;;;;3.70;3.40;;;;;;;22.60;53.31;98987.27;233662;1205;24058;-79
2021/09/03 13:25:42;;;;;;;4.10;3.50;;;;;;;22.20;53.88;98982.95;233895;1204;25045;-82
2021/09/03 13:30:45;;;;;;;3.90;3.00;;;;;;;21.98;54.38;98982.98;234135;1204;24029;-77
2021/09/03 13:35:48;;;;;;;3.50;3.20;;;;;;;21.76;54.95;98979.38;233677;1207;22447;-79
2021/09/03 13:40:51;;;;;;;3.20;2.90;;;;;;;21.62;55.41;98976.65;233575;1204;25709;-80
2021/09/03 13:45:53;;;;;;;3.70;3.30;;;;;;;21.66;55.69;98968.25;233705;1207;24018;-81
2021/09/03 13:50:56;;;;;;;3.80;3.40;;;;;;;21.81;56.05;98961.32;233310;1204;24137;-82
2021/09/03 13:56:02;;;;;;;3.30;3.00;;;;;;;22.01;55.30;98958.20;233440;1200;24104;-78
2021/09/03 14:01:05;;;;;;;3.70;3.40;;;;;;;22.10;54.66;98950.48;234073;1204;22562;-79
2021/09/03 14:06:08;;;;;;;3.50;3.20;;;;;;;21.96;54.03;98944.70;234268;1205;22598;-81
2021/09/03 14:11:11;;;;;;;3.20;2.90;;;;;;;21.81;54.08;98946.67;234505;1204;24085;-82
2021/09/03 14:16:15;;;;;;;4.00;3.60;;;;;;;21.90;54.47;98944.50;233338;1204;24572;-80
2021/09/03 14:21:18;;;;;;;5.10;4.10;;;;;;;22.02;54.26;98939.12;233358;1204;22508;-76
2021/09/03 14:26:21;;;;;;;4.60;3.90;;;;;;;22.08;53.89;98934.64;233507;1204;25840;-79
2021/09/03 14:31:26;;;;;;;4.00;3.40;;;;;;;22.12;53.32;98925.60;233449;1199;24039;-78
2021/09/03 14:36:34;;;;;;;3.20;2.70;;;;;;;22.18;53.20;98921.41;233527;1205;22568;-79
2021/09/03 14:41:36;;;;;;;3.90;2.90;;;;;;;22.23;51.91;98918.91;233434;1204;25239;-79
2021/09/03 14:46:39;;;;;;;3.00;2.70;;;;;;;22.25;52.14;98913.26;233415;1205;22570;-76
2021/09/03 14:51:42;;;;;;;3.20;2.90;;;;;;;22.29;52.68;98903.45;233167;1204;24228;-79
2021/09/03 14:56:44;;;;;;;4.00;2.70;;;;;;;22.34;52.47;98900.02;233869;1205;25319;-78
2021/09/03 15:01:49;;;;;;;4.50;3.50;;;;;;;22.35;52.13;98893.11;232966;1205;22577;-78
2021/09/03 15:06:52;;;;;;;3.60;2.60;;;;;;;22.33;51.88;98889.39;232967;1205;25274;-78
2021/09/03 15:11:55;;;;;;;3.40;3.10;;;;;;;22.33;51.94;98884.23;233037;1204;22619;-78
2021/09/03 15:16:58;;;;;;;3.70;3.10;;;;;;;22.32;52.14;98887.51;233483;1205;22570;-78
2021/09/03 15:22:01;;;;;;;3.60;3.10;;;;;;;22.30;51.78;98880.67;233012;1207;22459;-79
2021/09/03 15:27:11;;;;;;;4.60;3.30;;;;;;;22.30;52.16;98873.12;233180;1207;24105;-79
2021/09/03 15:32:14;;;;;;;3.50;3.20;;;;;;;22.29;52.21;98869.59;233258;1208;25220;-77
2021/09/03 15:37:16;;;;;;;4.00;3.10;;;;;;;22.28;52.33;98866.92;233247;1204;24208;-79
2021/09/03 15:42:20;;;;;;;3.10;2.80;;;;;;;22.24;52.25;98861.40;233233;1205;23635;-78
2021/09/03 15:47:30;;;;;;;4.40;3.50;;;;;;;22.19;52.50;98860.70;233190;1208;24078;-79
2021/09/03 15:52:32;;;;;;;5.00;2.90;;;;;;;22.11;52.30;98855.95;233303;1205;22482;-81
2021/09/03 15:57:35;;;;;;;4.30;3.50;;;;;;;22.00;52.64;98851.49;232956;1208;22487;-78
2021/09/03 16:02:38;;;;;;;3.80;3.00;;;;;;;21.93;53.02;98842.73;233066;1204;25222;-78
2021/09/03 16:07:42;;;;;;;3.50;2.80;;;;;;;21.82;53.42;98839.10;233276;1204;22476;-78
2021/09/03 16:12:44;;;;;;;3.30;3.00;;;;;;;21.70;53.53;98837.09;233389;1205;24071;-77
2021/09/03 16:17:48;;;;;;;3.30;3.00;;;;;;;21.58;53.99;98828.85;233064;1205;22463;-79
2021/09/03 16:22:50;;;;;;;3.90;3.50;;;;;;;21.43;54.28;98829.46;233166;1205;22484;-78
2021/09/03 16:27:54;;;;;;;3.60;3.30;;;;;;;21.25;54.71;98823.50;233491;1205;24064;-77
2021/09/03 16:32:57;;;;;;;3.80;3.30;;;;;;;21.06;55.50;98814.88;233385;1205;24037;-77
2021/09/03 16:38:00;;;;;;;9.90;3.00;;;;;;;20.89;55.97;98809.86;233118;1198;22537;-78
2021/09/03 16:43:04;;;;;;;6.50;3.80;;;;;;;20.70;56.80;98807.90;233254;1212;24083;-80
2021/09/03 16:48:06;;;;;;;3.40;3.10;;;;;;;20.52;57.12;98808.39;233732;1205;24832;-78
2021/09/03 16:53:09;;;;;;;4.80;4.10;;;;;;;20.31;57.74;98807.07;233205;1208;24114;-78
2021/09/03 16:58:26;;;;;;;4.70;4.20;;;;;;;20.11;58.44;98803.41;233285;1206;22657;-78
2021/09/03 17:03:31;;;;;;;5.70;3.70;;;;;;;19.89;58.93;98802.40;233516;1208;24118;-80
2021/09/03 17:08:34;;;;;;;5.10;4.60;;;;;;;19.70;59.72;98805.08;233189;1198;25337;-78
2021/09/03 17:13:36;;;;;;;8.00;6.10;;;;;;;19.52;60.71;98807.64;233066;1209;22463;-78
2021/09/03 17:18:39;;;;;;;6.70;4.80;;;;;;;19.31;61.39;98805.05;233153;1208;24103;-75
2021/09/03 17:23:42;;;;;;;5.70;4.20;;;;;;;19.10;62.16;98804.92;232943;1207;22477;-80
2021/09/03 17:28:45;;;;;;;8.80;5.60;;;;;;;18.90;62.87;98808.68;233002;1209;24147;-79
2021/09/03 17:33:48;;;;;;;8.80;6.20;;;;;;;18.73;63.64;98809.41;233112;1205;22938;-75
2021/09/03 17:38:51;;;;;;;8.00;5.90;;;;;;;18.57;64.22;98813.66;232993;1199;22396;-77
2021/09/03 17:43:56;;;;;;;10.30;7.10;;;;;;;18.37;64.64;98814.66;233420;1205;25333;-77
2021/09/03 17:49:11;;;;;;;9.60;7.40;;;;;;;18.17;65.21;98811.23;233130;1209;25287;-76
2021/09/03 17:54:14;;;;;;;9.40;7.40;;;;;;;18.00;65.87;98809.44;233434;1208;24059;-78
2021/09/03 17:59:17;;;;;;;9.10;7.20;;;;;;;17.86;66.46;98811.69;233157;1209;22469;-77
2021/09/03 18:04:19;;;;;;;9.60;7.80;;;;;;;17.75;66.95;98816.65;233504;1209;23101;-79
2021/09/03 18:09:22;;;;;;;8.00;5.90;;;;;;;17.63;67.31;98813.53;232968;1207;24058;-82
2021/09/03 18:14:38;;;;;;;11.90;8.90;;;;;;;17.48;67.36;98818.42;233181;1206;24137;-78
2021/09/03 18:20:00;;;;;;;8.80;6.60;;;;;;;17.33;68.04;98819.98;233165;1203;23765;-79
2021/09/03 18:25:05;;;;;;;7.90;6.30;;;;;;;17.24;68.72;98821.45;233184;1205;24139;-77
2021/09/03 18:30:10;;;;;;;8.20;6.10;;;;;;;17.08;68.79;98825.44;233083;1209;24516;-77
2021/09/03 18:35:27;;;;;;;15.20;9.00;;;;;;;16.93;69.31;98824.48;232894;1205;24024;-78
2021/09/03 18:40:49;;;;;;;10.00;7.30;;;;;;;16.80;70.05;98828.77;232808;1205;24106;-79
2021/09/03 18:45:52;;;;;;;14.20;9.40;;;;;;;16.64;70.48;98833.19;232869;1209;24072;-81
2021/09/03 18:50:55;;;;;;;13.20;8.20;;;;;;;16.51;71.05;98826.04;232904;1208;24123;-80
2021/09/03 18:55:58;;;;;;;10.60;8.20;;;;;;;16.39;71.61;98830.42;233327;1200;25206;-78
2021/09/03 19:01:01;;;;;;;10.00;7.70;;;;;;;16.27;72.03;98829.42;233312;1199;25339;-77
2021/09/03 19:06:06;;;;;;;12.30;8.10;;;;;;;16.16;72.47;98831.14;233148;1199;24083;-78
2021/09/03 19:11:09;;;;;;;12.00;8.70;;;;;;;16.07;72.99;98829.31;233324;1209;26181;-77
2021/09/03 19:16:13;;;;;;;8.40;6.30;;;;;;;15.98;73.48;98834.64;233294;1208;25385;-77
2021/09/03 19:21:16;;;;;;;13.00;8.10;;;;;;;15.82;73.46;98835.12;232812;1208;22479;-79
2021/09/03 19:26:20;;;;;;;10.30;7.30;;;;;;;15.73;73.91;98838.35;232929;1209;22486;-77
2021/09/03 19:31:32;;;;;;;12.70;8.30;;;;;;;15.67;74.49;98835.95;233302;1205;25107;-77
2021/09/03 19:36:35;;;;;;;8.90;7.50;;;;;;;15.57;74.63;98840.16;233361;1209;22506;-77
2021/09/03 19:41:39;;;;;;;10.90;7.50;;;;;;;15.45;74.85;98834.84;233278;1208;24080;-77
2021/09/03 19:46:42;;;;;;;12.10;8.00;;;;;;;15.38;75.32;98839.16;232883;1206;22468;-78
2021/09/03 19:51:45;;;;;;;10.90;8.80;;;;;;;15.35;75.86;98844.53;233299;1206;25205;-78
2021/09/03 19:56:47;;;;;;;15.10;10.60;;;;;;;15.35;76.27;98846.51;232892;1203;24580;-78
2021/09/03 20:01:57;;;;;;;14.60;9.60;;;;;;;15.38;76.51;98843.04;232958;1203;24089;-78
2021/09/03 20:07:13;;;;;;;9.90;7.90;;;;;;;15.42;76.69;98842.22;232921;1209;22470;-80
2021/09/03 20:12:16;;;;;;;11.90;9.10;;;;;;;15.42;76.55;98841.10;232960;1205;22504;-76
2021/09/03 20:17:20;;;;;;;12.50;8.90;;;;;;;15.34;76.41;98843.80;233008;1212;24047;-79
2021/09/03 20:22:23;;;;;;;13.10;8.50;;;;;;;15.31;76.74;98840.41;233269;1205;22694;-77
2021/09/03 20:27:25;;;;;;;16.20;10.50;;;;;;;15.33;76.88;98837.81;232973;1203;22567;-78
2021/09/03 20:32:32;;;;;;;13.10;10.00;;;;;;;15.37;77.18;98836.34;233414;1199;25423;-79
2021/09/03 20:37:49;;;;;;;12.30;9.20;;;;;;;15.43;77.42;98841.77;233217;1209;24105;-77
2021/09/03 20:42:51;;;;;;;12.10;9.30;;;;;;;15.31;76.90;98840.19;233438;1205;22465;-80
2021/09/03 20:48:01;;;;;;;12.70;9.30;;;;;;;15.12;77.00;98843.52;233204;1205;24147;-78
2021/09/03 20:53:08;;;;;;;11.90;8.70;;;;;;;14.97;77.39;98841.22;233371;1205;22498;-79
2021/09/03 20:58:11;;;;;;;16.30;11.50;;;;;;;14.85;77.78;98838.18;233534;1204;25285;-77
2021/09/03 21:03:14;;;;;;;14.30;10.00;;;;;;;14.71;78.15;98838.86;233633;1209;24132;-76
2021/09/03 21:08:17;;;;;;;20.30;11.80;;;;;;;14.61;78.49;98839.08;233070;1206;26210;-79
2021/09/03 21:13:19;;;;;;;15.10;11.20;;;;;;;14.55;78.74;98837.55;232980;1205;24116;-77
2021/09/03 21:18:23;;;;;;;17.40;12.40;;;;;;;14.50;79.23;98838.34;232684;1209;24699;-85
2021/09/03 21:23:42;;;;;;;22.40;15.30;;;;;;;14.44;79.56;98839.35;232878;1205;24159;-78
2021/09/03 21:28:44;;;;;;;28.70;17.20;;;;;;;14.34;79.81;98839.73;232738;1206;25373;-78
2021/09/03 21:33:47;;;;;;;28.20;16.50;;;;;;;14.22;80.03;98838.83;232804;1203;25201;-77
2021/09/03 21:38:50;;;;;;;24.20;14.40;;;;;;;14.13;80.28;98837.23;232678;1206;24074;-78
2021/09/03 21:43:52;;;;;;;22.80;15.30;;;;;;;14.08;80.47;98832.14;232746;1204;24424;-76
2021/09/03 21:49:09;;;;;;;21.90;14.30;;;;;;;14.02;80.76;98835.64;233153;1205;24113;-77
2021/09/03 21:54:14;;;;;;;29.50;17.30;;;;;;;13.96;80.95;98841.88;232730;1203;22901;-78
2021/09/03 21:59:18;;;;;;;20.70;14.80;;;;;;;13.93;81.38;98844.71;232869;1206;24070;-78
2021/09/03 22:04:26;;;;;;;22.20;14.60;;;;;;;13.89;81.39;98844.66;233194;1205;24157;-78
2021/09/03 22:09:36;;;;;;;22.70;14.80;;;;;;;13.83;81.52;98843.71;233481;1197;25400;-79
2021/09/03 22:14:38;;;;;;;20.20;15.00;;;;;;;13.80;81.70;98844.42;232663;1205;25120;-78
2021/09/03 22:19:42;;;;;;;21.10;15.80;;;;;;;13.72;81.91;98844.17;233470;1205;24064;-78
2021/09/03 22:24:45;;;;;;;20.80;15.00;;;;;;;13.65;82.03;98838.88;233108;1206;22481;-77
2021/09/03 22:29:54;;;;;;;19.40;13.80;;;;;;;13.60;82.05;98838.55;232846;1205;24097;-78
2021/09/03 22:35:17;;;;;;;17.10;12.00;;;;;;;13.62;82.40;98841.11;232767;1203;24018;-79
2021/09/03 22:40:20;;;;;;;15.80;12.20;;;;;;;13.65;82.72;98841.48;233191;1204;24173;-75
2021/09/03 22:45:23;;;;;;;14.90;10.70;;;;;;;13.68;82.91;98843.11;232933;1209;24028;-76
2021/09/03 22:50:26;;;;;;;15.70;10.60;;;;;;;13.71;82.98;98844.74;232689;1208;24020;-78
2021/09/03 22:55:29;;;;;;;16.60;12.00;;;;;;;13.73;82.90;98841.75;232952;1204;25088;-78
2021/09/03 23:00:32;;;;;;;13.60;11.20;;;;;;;13.71;82.91;98841.79;232493;1205;22446;-76
2021/09/03 23:05:35;;;;;;;15.30;10.40;;;;;;;13.61;82.32;98839.67;232555;1205;25084;-77
2021/09/03 23:10:38;;;;;;;15.00;10.20;;;;;;;13.50;82.29;98840.89;232538;1200;25229;-78
2021/09/03 23:15:41;;;;;;;14.00;9.70;;;;;;;13.47;82.75;98838.60;232898;1206;24148;-78
2021/09/03 23:20:44;;;;;;;16.70;11.30;;;;;;;13.44;82.71;98836.10;232709;1205;24223;-76
2021/09/03 23:25:47;;;;;;;13.70;10.10;;;;;;;13.43;83.05;98827.93;232705;1205;24813;-78
2021/09/03 23:30:52;;;;;;;11.60;8.60;;;;;;;13.42;83.02;98828.23;232845;1207;22609;-75
2021/09/03 23:36:02;;;;;;;11.20;8.50;;;;;;;13.37;82.70;98827.09;232994;1204;24205;-78